Time;durP1;ratioP1;P1;durP2;ratioP2;P2;SDS_P1;SDS_P2;PMS_P1;PMS_P2;Temp;Humidity;BMP_temperature;BMP_pressure;BME280_temperature;BME280_humidity;BME280_pressure;Samples;Min_cycle;Max_cycle;Signal;HPM_P1;HPM_P2
2023/05/12 00:01:22;;;;;;;9.90;4.57;;;;;;;15.06;49.15;101444.47;5044969;28;20037;-54
2023/05/12 00:03:48;;;;;;;7.93;5.45;;;;;;;15.07;48.80;101435.53;5053243;28;20037;-54
2023/05/12 00:06:13;;;;;;;6.82;4.53;;;;;;;15.04;48.94;101441.06;5056352;28;20417;-54
2023/05/12 00:08:39;;;;;;;9.52;5.63;;;;;;;14.97;48.72;101434.31;5032364;28;20108;-54
2023/05/12 00:11:04;;;;;;;6.35;4.38;;;;;;;14.97;48.65;101429.88;5056606;28;20052;-54
2023/05/12 00:13:29;;;;;;;7.97;4.97;;;;;;;14.96;48.83;101432.63;5056760;28;20025;-54
2023/05/12 00:15:57;;;;;;;7.30;4.68;;;;;;;14.94;48.96;101429.16;5056445;28;20037;-54
2023/05/12 00:18:23;;;;;;;10.10;5.07;;;;;;;14.92;48.84;101431.03;5054071;28;20053;-54
2023/05/12 00:20:48;;;;;;;11.52;5.18;;;;;;;14.93;48.30;101438.09;5053920;28;20409;-54
2023/05/12 00:23:13;;;;;;;9.02;5.45;;;;;;;14.95;47.98;101433.53;5053655;28;20068;-54
2023/05/12 00:25:39;;;;;;;7.07;4.50;;;;;;;14.91;48.65;101434.63;5043848;28;20112;-54
2023/05/12 00:28:04;;;;;;;9.60;4.55;;;;;;;14.84;48.43;101434.97;5055993;28;20539;-54
2023/05/12 00:30:30;;;;;;;8.82;4.30;;;;;;;14.78;48.47;101429.97;5054860;28;20048;-54
2023/05/12 00:32:56;;;;;;;10.15;4.85;;;;;;;14.72;48.98;101430.28;5056330;28;20029;-53
2023/05/12 00:35:21;;;;;;;9.02;5.03;;;;;;;14.65;48.99;101435.06;5056684;28;20425;-53
2023/05/12 00:37:46;;;;;;;11.45;4.40;;;;;;;14.65;49.24;101431.56;5055139;28;20025;-54
2023/05/12 00:40:12;;;;;;;7.20;4.47;;;;;;;14.64;48.76;101435.16;5055348;28;20029;-54
2023/05/12 00:42:37;;;;;;;10.73;4.78;;;;;;;14.61;49.10;101435.31;5039931;28;20033;-54
2023/05/12 00:45:03;;;;;;;8.30;4.80;;;;;;;14.52;49.16;101438.44;5054901;28;20464;-54
2023/05/12 00:47:29;;;;;;;12.68;5.22;;;;;;;14.54;48.99;101432.06;5054027;28;20086;-54
2023/05/12 00:49:55;;;;;;;7.22;4.43;;;;;;;14.52;48.87;101439.28;5055467;28;20117;-54
2023/05/12 00:52:21;;;;;;;8.00;4.78;;;;;;;14.56;48.72;101435.50;5049103;28;20032;-54
2023/05/12 00:54:47;;;;;;;6.45;4.70;;;;;;;14.50;49.04;101442.00;5046089;28;20025;-54
2023/05/12 00:57:13;;;;;;;8.50;4.38;;;;;;;14.46;49.41;101445.75;5048719;28;20377;-54
2023/05/12 00:59:38;;;;;;;10.32;4.38;;;;;;;14.42;49.49;101446.00;5052250;28;20429;-54
2023/05/12 01:02:06;;;;;;;8.32;4.88;;;;;;;14.39;49.72;101436.38;5056086;28;20071;-54
2023/05/12 01:04:32;;;;;;;7.28;4.80;;;;;;;14.36;49.70;101446.31;5056010;28;20117;-54
2023/05/12 01:07:11;;;;;;;5.72;4.55;;;;;;;14.32;49.95;101448.28;5046060;28;20131;-54
2023/05/12 01:09:36;;;;;;;7.72;5.20;;;;;;;14.28;49.71;101452.00;5053578;28;20021;-56
2023/05/12 01:12:02;;;;;;;7.40;4.88;;;;;;;14.26;49.88;101445.91;5036241;28;20356;-53
2023/05/12 01:14:27;;;;;;;7.68;4.28;;;;;;;14.26;49.88;101448.56;5072243;28;20024;-53
2023/05/12 01:16:57;;;;;;;20.77;6.03;;;;;;;14.22;50.12;101452.31;5057151;28;20125;-53
2023/05/12 01:19:37;;;;;;;10.13;5.68;;;;;;;14.22;50.53;101452.31;5048457;28;20013;-53
2023/05/12 01:22:03;;;;;;;8.05;4.30;;;;;;;14.21;49.97;101455.94;5055137;28;20170;-55
2023/05/12 01:24:30;;;;;;;7.53;4.90;;;;;;;14.24;50.24;101461.09;5053331;28;20064;-56
2023/05/12 01:26:56;;;;;;;7.72;4.57;;;;;;;14.27;49.87;101450.28;5054328;28;20037;-53
2023/05/12 01:29:23;;;;;;;7.97;4.53;;;;;;;14.25;50.26;101445.03;5053594;28;20361;-54
2023/05/12 01:31:48;;;;;;;6.57;4.75;;;;;;;14.25;50.46;101446.84;5055123;28;20033;-55
2023/05/12 01:34:17;;;;;;;11.68;5.15;;;;;;;14.23;50.00;101454.03;5052948;28;20381;-54
2023/05/12 01:36:43;;;;;;;6.85;4.85;;;;;;;14.21;50.68;101450.59;5055463;28;20445;-53
2023/05/12 01:39:08;;;;;;;9.23;5.10;;;;;;;14.17;50.33;101451.69;5054071;28;20029;-54
2023/05/12 01:41:34;;;;;;;9.25;4.30;;;;;;;14.12;50.13;101451.91;5034908;28;20358;-54
2023/05/12 01:44:00;;;;;;;6.72;3.97;;;;;;;14.11;49.71;101456.38;5044771;28;20036;-54
2023/05/12 01:46:25;;;;;;;20.00;5.85;;;;;;;14.14;50.00;101460.69;5055157;28;20035;-54
2023/05/12 01:48:50;;;;;;;6.88;4.82;;;;;;;14.11;49.63;101461.69;5052856;28;20501;-54
2023/05/12 01:51:16;;;;;;;7.75;4.95;;;;;;;14.10;49.24;101462.63;5053846;28;20340;-54
2023/05/12 01:53:41;;;;;;;11.23;4.75;;;;;;;14.07;49.46;101460.09;5052112;28;20048;-54
2023/05/12 01:56:06;;;;;;;8.55;4.63;;;;;;;14.13;49.31;101459.81;5053717;28;20036;-54
2023/05/12 01:58:32;;;;;;;9.55;4.95;;;;;;;14.09;48.88;101457.38;5047344;28;20082;-54
2023/05/12 02:00:57;;;;;;;10.13;4.63;;;;;;;14.07;49.27;101460.09;5053185;28;20032;-55
2023/05/12 02:03:23;;;;;;;9.70;4.40;;;;;;;13.95;49.62;101460.72;5054047;28;20029;-54
2023/05/12 02:05:48;;;;;;;8.18;4.10;;;;;;;13.86;49.81;101461.16;5042091;28;20116;-55
2023/05/12 02:08:13;;;;;;;9.25;4.82;;;;;;;13.83;50.28;101471.91;5046868;28;20125;-54
2023/05/12 02:10:39;;;;;;;9.30;4.35;;;;;;;13.81;49.78;101468.50;5050495;28;20118;-54
2023/05/12 02:13:04;;;;;;;9.13;4.22;;;;;;;13.76;50.11;101466.94;5056981;28;20032;-54
2023/05/12 02:15:30;;;;;;;15.15;5.03;;;;;;;13.74;50.03;101474.09;5054585;28;20123;-56
2023/05/12 02:17:57;;;;;;;8.15;4.45;;;;;;;13.70;50.26;101475.19;5054820;28;20122;-54
2023/05/12 02:20:22;;;;;;;9.05;5.20;;;;;;;13.72;50.35;101478.63;5055782;28;20055;-54
2023/05/12 02:22:47;;;;;;;7.97;4.78;;;;;;;13.70;50.50;101477.84;5057167;28;20029;-54
2023/05/12 02:25:13;;;;;;;8.98;5.03;;;;;;;13.71;50.16;101474.22;5051072;28;20036;-54
2023/05/12 02:27:38;;;;;;;12.00;5.30;;;;;;;13.66;50.62;101475.41;5053396;28;20044;-56
2023/05/12 02:30:05;;;;;;;7.97;4.50;;;;;;;13.63;50.80;101480.84;5054289;28;20060;-54
2023/05/12 02:32:30;;;;;;;10.52;5.15;;;;;;;13.70;50.71;101472.53;5054602;28;20049;-54
2023/05/12 02:34:55;;;;;;;9.75;4.82;;;;;;;13.67;51.29;101472.66;5052598;28;20040;-54
2023/05/12 02:37:21;;;;;;;10.75;5.75;;;;;;;13.60;51.26;101476.56;5052857;28;20111;-54
2023/05/12 02:39:46;;;;;;;8.23;4.22;;;;;;;13.63;51.17;101463.09;5053552;28;20040;-54
2023/05/12 02:42:11;;;;;;;7.55;5.03;;;;;;;13.57;51.31;101477.53;5052758;28;20453;-54
2023/05/12 02:44:37;;;;;;;9.50;4.95;;;;;;;13.60;51.26;101465.94;5053806;28;20037;-56
2023/05/12 02:47:03;;;;;;;11.20;4.93;;;;;;;13.56;51.36;101474.97;5053405;28;21029;-54
2023/05/12 02:49:28;;;;;;;8.93;5.30;;;;;;;13.54;51.36;101471.53;5053121;28;20028;-54
2023/05/12 02:51:54;;;;;;;10.25;5.18;;;;;;;13.58;51.18;101473.09;5051836;28;20028;-54
2023/05/12 02:54:20;;;;;;;9.30;5.20;;;;;;;13.57;51.29;101472.25;5052085;28;20068;-54
2023/05/12 02:56:45;;;;;;;12.48;4.82;;;;;;;13.58;51.44;101470.44;5050806;28;20059;-54
2023/05/12 02:59:11;;;;;;;14.90;5.28;;;;;;;13.58;51.65;101473.09;5051694;28;20021;-54
2023/05/12 03:01:36;;;;;;;8.38;4.55;;;;;;;13.58;51.73;101473.09;5051813;28;20029;-54
2023/05/12 03:04:02;;;;;;;9.98;5.55;;;;;;;13.53;51.93;101470.63;5053294;28;20041;-54
2023/05/12 03:06:28;;;;;;;11.82;4.78;;;;;;;13.50;52.56;101476.13;5051852;28;20033;-54
2023/05/12 03:08:54;;;;;;;21.30;5.65;;;;;;;13.43;52.45;101473.81;5052659;28;20084;-54
2023/05/12 03:11:21;;;;;;;10.90;4.97;;;;;;;13.37;52.10;101470.50;5050369;28;20361;-54
2023/05/12 03:13:46;;;;;;;8.00;5.40;;;;;;;13.35;52.16;101482.97;5052638;28;20052;-54
2023/05/12 03:16:12;;;;;;;11.80;5.10;;;;;;;13.29;52.18;101483.25;5051626;28;20457;-54
2023/05/12 03:18:37;;;;;;;11.73;6.60;;;;;;;13.26;52.61;101482.50;5052473;28;20029;-54
2023/05/12 03:21:03;;;;;;;10.13;5.47;;;;;;;13.25;52.60;101481.66;5051917;28;20024;-54
2023/05/12 03:23:28;;;;;;;11.73;5.90;;;;;;;13.26;52.43;101478.06;5053705;28;20135;-54
2023/05/12 03:25:54;;;;;;;7.97;4.80;;;;;;;13.32;52.30;101483.16;5053310;28;20028;-54
2023/05/12 03:28:21;;;;;;;10.48;6.30;;;;;;;13.35;52.24;101488.28;5054009;28;20079;-54
2023/05/12 03:30:47;;;;;;;13.88;5.50;;;;;;;13.35;52.54;101482.97;5052720;28;20036;-54
2023/05/12 03:33:13;;;;;;;13.95;5.63;;;;;;;13.36;52.47;101484.72;5050701;28;20025;-54
2023/05/12 03:35:38;;;;;;;8.75;4.90;;;;;;;13.38;51.88;101488.16;5051195;28;20060;-54
2023/05/12 03:38:04;;;;;;;10.75;5.18;;;;;;;13.44;52.13;101502.06;5052293;28;20032;-54
2023/05/12 03:40:29;;;;;;;11.07;5.63;;;;;;;13.40;52.31;101498.69;5053061;28;20108;-54
2023/05/12 03:42:55;;;;;;;13.35;5.20;;;;;;;13.37;52.63;101497.06;5050758;28;20024;-54
2023/05/12 03:45:20;;;;;;;9.70;4.65;;;;;;;13.32;52.48;101493.75;5051962;28;20055;-54
2023/05/12 03:47:46;;;;;;;12.43;5.55;;;;;;;13.33;52.37;101494.63;5051819;28;20397;-54
2023/05/12 03:50:11;;;;;;;12.68;5.80;;;;;;;13.24;53.00;101490.56;5051195;28;20051;-54
2023/05/12 03:52:37;;;;;;;9.45;5.32;;;;;;;13.12;53.28;101496.41;5050475;28;20112;-54
2023/05/12 03:55:04;;;;;;;13.65;5.28;;;;;;;12.95;53.75;101500.66;5052888;28;20029;-54
2023/05/12 03:57:30;;;;;;;9.38;5.72;;;;;;;12.87;53.80;101497.47;5051152;28;20060;-54
2023/05/12 03:59:55;;;;;;;10.55;5.40;;;;;;;12.80;53.90;101498.66;5052424;28;20064;-54
2023/05/12 04:02:21;;;;;;;7.18;4.72;;;;;;;12.66;54.52;101505.41;5051892;28;20033;-54
2023/05/12 04:04:46;;;;;;;14.40;5.07;;;;;;;12.58;54.99;101496.94;5050656;28;20025;-55
2023/05/12 04:07:11;;;;;;;9.45;5.90;;;;;;;12.52;54.99;101506.94;5051715;28;20020;-54
2023/05/12 04:09:37;;;;;;;13.40;5.80;;;;;;;12.47;55.06;101504.47;5050590;28;20069;-55
2023/05/12 04:12:02;;;;;;;9.00;5.63;;;;;;;12.42;55.23;101511.75;5052536;28;20033;-54
2023/05/12 04:14:28;;;;;;;8.30;5.72;;;;;;;12.45;55.46;101511.63;5050555;28;20027;-54
2023/05/12 04:16:53;;;;;;;8.52;6.38;;;;;;;12.38;55.71;101518.97;5051168;28;20490;-54
2023/05/12 04:19:18;;;;;;;14.02;5.80;;;;;;;12.33;55.90;101517.44;5051260;28;20128;-54
2023/05/12 04:21:44;;;;;;;14.57;5.65;;;;;;;12.30;55.55;101508.69;5052359;28;20044;-55
2023/05/12 04:24:10;;;;;;;13.02;5.97;;;;;;;12.28;55.31;101509.69;5051871;28;20040;-54
2023/05/12 04:26:35;;;;;;;13.55;6.75;;;;;;;12.31;55.03;101512.22;5053110;28;20036;-55
2023/05/12 04:29:01;;;;;;;9.75;5.82;;;;;;;12.32;55.02;101510.41;5052647;28;20021;-54
2023/05/12 04:31:26;;;;;;;19.80;6.45;;;;;;;12.27;55.32;101511.44;5053319;28;20032;-54
2023/05/12 04:33:51;;;;;;;9.05;5.47;;;;;;;12.23;55.57;101517.81;5054427;28;20025;-54
2023/05/12 04:36:17;;;;;;;8.55;4.90;;;;;;;12.23;55.67;101519.63;5051951;28;20119;-54
2023/05/12 04:38:42;;;;;;;11.32;6.45;;;;;;;12.27;55.29;101519.41;5056020;28;20025;-55
2023/05/12 04:41:08;;;;;;;10.57;5.10;;;;;;;12.24;55.31;101524.84;5054911;28;20029;-55
2023/05/12 04:43:33;;;;;;;7.57;5.32;;;;;;;12.23;55.37;101528.41;5055976;28;20112;-54
2023/05/12 04:46:00;;;;;;;16.85;6.00;;;;;;;12.29;55.37;101528.19;5056368;28;20044;-54
2023/05/12 04:48:25;;;;;;;11.27;6.28;;;;;;;12.31;55.12;101530.78;5059027;28;20048;-54
2023/05/12 04:50:51;;;;;;;11.57;6.13;;;;;;;12.27;55.38;101532.66;5055317;28;20333;-55
2023/05/12 04:53:16;;;;;;;12.35;6.22;;;;;;;12.32;55.07;101537.78;5055497;28;20035;-54
2023/05/12 04:55:44;;;;;;;14.65;6.13;;;;;;;12.30;55.68;101534.34;5052403;28;20037;-55
2023/05/12 04:58:13;;;;;;;26.10;6.18;;;;;;;12.27;56.05;101530.00;5054449;28;20056;-54
2023/05/12 05:00:39;;;;;;;9.18;5.30;;;;;;;12.30;55.06;101540.50;5053919;28;20024;-55
2023/05/12 05:03:04;;;;;;;11.65;5.30;;;;;;;12.36;55.03;101543.81;5056676;28;20117;-52
2023/05/12 05:05:30;;;;;;;11.77;5.53;;;;;;;12.39;55.43;101544.56;5055105;28;20107;-55
2023/05/12 05:07:56;;;;;;;10.50;5.25;;;;;;;12.32;55.58;101536.91;5055408;28;20457;-55
2023/05/12 05:10:22;;;;;;;15.50;5.57;;;;;;;12.33;54.90;101538.66;5054787;28;20436;-55
2023/05/12 05:12:47;;;;;;;14.30;5.90;;;;;;;12.29;54.94;101549.38;5054216;28;20029;-54
2023/05/12 05:15:13;;;;;;;9.90;5.40;;;;;;;12.30;55.25;101556.38;5054666;28;20021;-54
2023/05/12 05:17:38;;;;;;;7.70;5.15;;;;;;;12.35;54.87;101552.72;5053999;28;20124;-53
2023/05/12 05:20:06;;;;;;;11.68;5.43;;;;;;;12.34;54.81;101556.28;5053445;28;20031;-54
2023/05/12 05:22:31;;;;;;;11.40;7.07;;;;;;;12.28;55.15;101558.25;5054924;28;20041;-54
2023/05/12 05:24:56;;;;;;;15.70;6.93;;;;;;;12.36;54.82;101559.72;5055024;28;20033;-54
2023/05/12 05:27:22;;;;;;;16.65;5.47;;;;;;;12.37;54.94;101558.81;5053774;28;20120;-53
2023/05/12 05:29:48;;;;;;;11.70;4.82;;;;;;;12.34;55.23;101556.28;5055264;28;20029;-53
2023/05/12 05:32:13;;;;;;;12.80;6.10;;;;;;;12.39;54.84;101565.78;5055719;28;20064;-54
2023/05/12 05:34:39;;;;;;;11.13;6.03;;;;;;;12.40;55.21;101561.34;5051614;28;20377;-53
2023/05/12 05:37:04;;;;;;;9.43;5.90;;;;;;;12.39;55.29;101564.91;5050022;28;20453;-53
2023/05/12 05:39:30;;;;;;;15.85;6.10;;;;;;;12.48;55.21;101575.16;5040114;28;20452;-53
2023/05/12 05:41:56;;;;;;;12.73;6.50;;;;;;;12.55;55.01;101576.59;5055368;28;20494;-53
2023/05/12 05:44:23;;;;;;;11.80;5.82;;;;;;;12.67;54.64;101570.81;5054446;28;20032;-54
2023/05/12 05:46:49;;;;;;;9.65;5.18;;;;;;;12.73;54.77;101579.44;5055225;28;20024;-54
2023/05/12 05:49:14;;;;;;;10.55;5.65;;;;;;;12.80;54.25;101571.16;5049854;28;20425;-54
2023/05/12 05:51:39;;;;;;;11.32;5.70;;;;;;;12.88;53.58;101572.63;5054009;28;20029;-54
2023/05/12 05:54:05;;;;;;;13.55;5.50;;;;;;;12.93;54.17;101582.13;5052398;28;20180;-54
2023/05/12 05:56:32;;;;;;;11.63;5.88;;;;;;;12.98;54.46;101574.84;5047809;28;20045;-56
2023/05/12 05:59:01;;;;;;;13.82;5.97;;;;;;;13.13;52.66;101572.47;5048494;28;20036;-54
2023/05/12 06:01:26;;;;;;;16.92;5.57;;;;;;;13.18;52.90;101587.25;5052860;28;20040;-54
2023/05/12 06:03:52;;;;;;;12.43;5.95;;;;;;;13.33;53.41;101585.75;5047515;28;20021;-54
2023/05/12 06:06:17;;;;;;;16.25;6.25;;;;;;;13.47;51.13;101584.25;5050900;28;20041;-54
2023/05/12 06:08:42;;;;;;;9.73;5.32;;;;;;;13.59;50.90;101589.91;5051776;28;20471;-54
2023/05/12 06:11:08;;;;;;;11.95;5.75;;;;;;;13.72;50.66;101586.69;5053549;28;20044;-54
2023/05/12 06:13:33;;;;;;;9.07;5.22;;;;;;;13.81;50.22;101585.41;5053585;28;20080;-54
2023/05/12 06:15:59;;;;;;;13.73;5.13;;;;;;;13.94;49.94;101586.56;5053419;28;20213;-54
2023/05/12 06:18:24;;;;;;;7.30;5.28;;;;;;;14.05;49.37;101589.56;5045703;28;20037;-54
2023/05/12 06:20:49;;;;;;;9.60;5.07;;;;;;;14.19;49.68;101590.72;5051986;28;20032;-54
2023/05/12 06:23:15;;;;;;;13.20;5.05;;;;;;;14.35;48.97;101591.69;5055066;28;20056;-54
2023/05/12 06:25:40;;;;;;;13.23;5.43;;;;;;;14.49;48.81;101591.91;5050679;28;20025;-54
2023/05/12 06:28:05;;;;;;;10.63;5.57;;;;;;;14.59;48.42;101588.81;5041276;28;20111;-54
2023/05/12 06:30:32;;;;;;;14.98;5.65;;;;;;;14.69;48.14;101592.75;5040861;28;20454;-54
2023/05/12 06:32:58;;;;;;;10.38;4.72;;;;;;;14.81;47.83;101593.94;5041876;28;20052;-54
2023/05/12 06:35:23;;;;;;;11.15;5.03;;;;;;;15.02;47.01;101602.63;5045772;28;20060;-55
2023/05/12 06:37:49;;;;;;;6.55;4.35;;;;;;;15.18;45.80;101587.59;5048155;28;20128;-54
2023/05/12 06:40:18;;;;;;;8.98;4.55;;;;;;;15.34;45.64;101592.16;5039722;28;20025;-54
2023/05/12 06:42:44;;;;;;;12.32;4.80;;;;;;;15.39;45.68;101587.44;5045606;28;20029;-55
2023/05/12 06:45:11;;;;;;;14.43;4.63;;;;;;;15.54;45.69;101594.59;5045930;28;20249;-54
2023/05/12 06:47:37;;;;;;;8.95;5.30;;;;;;;15.70;45.13;101588.47;5051440;28;20033;-56
2023/05/12 06:50:03;;;;;;;11.68;4.70;;;;;;;15.78;45.25;101586.28;5040433;28;20111;-54
2023/05/12 06:52:28;;;;;;;11.93;4.68;;;;;;;15.98;45.21;101589.66;5049870;28;20038;-54
2023/05/12 06:54:54;;;;;;;11.07;4.72;;;;;;;16.14;43.86;101588.72;5051894;28;20041;-54
2023/05/12 06:57:19;;;;;;;9.25;4.78;;;;;;;16.36;42.65;101592.84;5049563;28;20052;-54
2023/05/12 06:59:45;;;;;;;11.52;3.88;;;;;;;16.47;42.52;101595.75;5045076;28;20116;-55
2023/05/12 07:02:10;;;;;;;11.23;4.85;;;;;;;16.59;42.22;101594.22;5041667;28;20418;-54
2023/05/12 07:04:36;;;;;;;10.35;4.32;;;;;;;16.69;42.33;101594.53;5049438;28;20107;-54
2023/05/12 07:07:01;;;;;;;7.55;3.65;;;;;;;16.80;42.19;101591.22;5042702;28;20051;-54
2023/05/12 07:09:27;;;;;;;8.15;4.18;;;;;;;17.03;41.44;101592.56;5046977;28;20040;-55
2023/05/12 07:11:53;;;;;;;8.98;4.07;;;;;;;17.06;40.91;101592.38;5043878;28;20121;-54
2023/05/12 07:14:18;;;;;;;11.23;4.30;;;;;;;17.20;41.49;101591.56;5050526;28;20056;-55
2023/05/12 07:16:43;;;;;;;9.52;4.00;;;;;;;17.42;40.95;101586.63;5048378;28;20028;-53
2023/05/12 07:19:09;;;;;;;10.98;3.92;;;;;;;17.54;40.93;101586.81;5053470;28;20421;-55
2023/05/12 07:21:35;;;;;;;19.73;5.00;;;;;;;17.68;40.67;101594.00;5054549;28;20080;-54
2023/05/12 07:24:01;;;;;;;5.80;3.35;;;;;;;17.86;39.71;101583.97;5050741;28;20121;-55
2023/05/12 07:26:28;;;;;;;6.07;3.45;;;;;;;17.97;39.27;101589.53;5044525;28;21580;-55
2023/05/12 07:28:53;;;;;;;13.55;3.88;;;;;;;18.08;38.74;101592.38;5052624;28;20043;-53
2023/05/12 07:31:18;;;;;;;12.30;3.88;;;;;;;18.22;38.60;101582.59;5054715;28;20318;-55
2023/05/12 07:33:44;;;;;;;7.57;3.95;;;;;;;18.26;36.53;101586.78;5048044;28;20068;-54
2023/05/12 07:36:09;;;;;;;7.18;4.07;;;;;;;18.30;36.75;101585.63;5051833;28;20024;-54
2023/05/12 07:38:35;;;;;;;13.52;3.22;;;;;;;18.41;37.33;101583.13;5052888;28;20037;-53
2023/05/12 07:41:01;;;;;;;10.57;3.45;;;;;;;18.59;36.96;101585.56;5051117;28;20112;-54
2023/05/12 07:43:26;;;;;;;12.00;5.68;;;;;;;18.64;35.76;101583.41;5049546;28;20048;-53
2023/05/12 07:45:53;;;;;;;6.40;3.97;;;;;;;18.79;35.98;101585.06;5054057;28;20512;-54
2023/05/12 07:48:18;;;;;;;9.38;3.67;;;;;;;18.82;35.48;101590.22;5053241;28;20069;-51
2023/05/12 07:50:44;;;;;;;10.05;3.88;;;;;;;18.87;34.80;101580.06;5049192;28;20056;-53
2023/05/12 07:53:09;;;;;;;8.70;3.67;;;;;;;19.03;34.91;101584.41;5051912;28;20048;-52
2023/05/12 07:55:35;;;;;;;10.88;3.47;;;;;;;19.15;34.58;101580.88;5052341;28;20033;-52
2023/05/12 07:58:00;;;;;;;7.88;4.35;;;;;;;19.24;34.60;101582.94;5052253;28;20045;-52
2023/05/12 08:00:26;;;;;;;9.43;3.70;;;;;;;19.25;34.57;101581.94;5049802;28;20033;-52
2023/05/12 08:02:52;;;;;;;7.65;3.40;;;;;;;19.50;34.60;101588.31;5051475;28;20067;-53
2023/05/12 08:05:18;;;;;;;8.40;3.28;;;;;;;19.52;33.87;101586.38;5052767;28;20100;-52
2023/05/12 08:07:45;;;;;;;9.23;3.28;;;;;;;19.56;32.19;101582.47;5040844;28;20110;-51
2023/05/12 08:10:11;;;;;;;8.65;3.15;;;;;;;19.62;32.29;101586.56;5049603;28;20036;-51
2023/05/12 08:12:39;;;;;;;7.32;3.15;;;;;;;19.70;33.05;101580.66;5048232;28;20029;-52
2023/05/12 08:15:05;;;;;;;12.23;3.85;;;;;;;19.83;31.91;101578.84;5050991;28;20028;-54
2023/05/12 08:17:30;;;;;;;7.28;2.90;;;;;;;19.82;31.55;101582.50;5055542;28;20024;-52
2023/05/12 08:19:56;;;;;;;6.57;2.78;;;;;;;19.76;31.43;101582.94;5045916;28;20025;-52
2023/05/12 08:22:21;;;;;;;9.65;3.65;;;;;;;19.85;32.46;101582.28;5056734;28;20055;-52
2023/05/12 08:24:46;;;;;;;8.63;3.58;;;;;;;19.92;30.91;101585.38;5057214;28;20032;-52
2023/05/12 08:27:12;;;;;;;6.13;3.33;;;;;;;19.94;30.43;101583.44;5054266;28;20132;-52
2023/05/12 08:29:37;;;;;;;18.25;3.53;;;;;;;19.80;30.54;101579.91;5045143;28;20932;-52
2023/05/12 08:32:03;;;;;;;8.20;3.15;;;;;;;19.89;30.55;101585.59;5056856;28;20060;-52
2023/05/12 08:34:29;;;;;;;4.47;2.75;;;;;;;19.90;30.52;101582.81;5053707;28;20021;-52
2023/05/12 08:36:54;;;;;;;10.25;4.07;;;;;;;19.88;30.62;101592.78;5047095;28;20064;-52
2023/05/12 08:39:20;;;;;;;4.95;3.20;;;;;;;19.93;30.45;101596.00;5055825;28;20023;-54
2023/05/12 08:42:08;;;;;;;5.00;3.70;;;;;;;19.77;30.57;101587.34;5056716;28;20032;-52
2023/05/12 08:44:37;;;;;;;6.78;3.28;;;;;;;20.01;29.96;101587.41;5041403;28;20338;-52
2023/05/12 08:47:04;;;;;;;8.48;2.83;;;;;;;19.98;30.16;101590.31;5046548;28;20067;-51
2023/05/12 08:49:31;;;;;;;12.65;4.40;;;;;;;20.15;30.45;101584.53;5035553;28;20064;-52
2023/05/12 08:51:58;;;;;;;5.00;2.65;;;;;;;20.24;30.45;101585.72;5047152;28;20039;-52
2023/05/12 08:54:25;;;;;;;6.15;2.50;;;;;;;20.25;30.06;101583.88;5052775;28;20031;-51
2023/05/12 08:56:52;;;;;;;9.52;2.80;;;;;;;20.24;29.22;101580.34;5050398;28;20067;-52
2023/05/12 08:59:18;;;;;;;6.25;3.22;;;;;;;20.48;29.23;101579.50;5048295;28;20051;-52
2023/05/12 09:01:46;;;;;;;10.20;2.83;;;;;;;20.53;28.95;101577.31;5052142;28;20025;-52
2023/05/12 09:04:14;;;;;;;9.15;2.53;;;;;;;20.46;28.75;101581.44;5046791;28;20041;-52
2023/05/12 09:06:40;;;;;;;12.80;3.28;;;;;;;20.50;28.69;101582.94;5046440;28;20037;-55
2023/05/12 09:09:06;;;;;;;7.38;3.20;;;;;;;20.41;28.33;101570.19;5051259;28;20068;-54
2023/05/12 09:11:32;;;;;;;7.40;2.90;;;;;;;20.48;27.52;101579.50;5053255;28;20437;-52
2023/05/12 09:14:01;;;;;;;7.72;2.28;;;;;;;20.50;26.34;101577.56;5046575;28;20021;-53
2023/05/12 09:16:49;;;;;;;6.90;2.40;;;;;;;20.54;26.81;101573.66;5049927;28;20029;-53
2023/05/12 09:19:19;;;;;;;3.72;2.50;;;;;;;20.44;26.28;101573.50;5050814;28;20033;-54
2023/05/12 09:21:46;;;;;;;8.20;3.15;;;;;;;20.56;27.32;101577.09;5047728;28;20075;-54
2023/05/12 09:24:11;;;;;;;9.18;3.05;;;;;;;20.80;27.54;101584.31;5052536;28;20357;-54
2023/05/12 09:26:46;;;;;;;6.72;3.55;;;;;;;20.97;26.04;101583.03;5048007;28;20024;-53
2023/05/12 09:29:11;;;;;;;9.45;3.17;;;;;;;21.05;25.45;101577.91;5049264;28;20029;-54
2023/05/12 09:31:37;;;;;;;6.47;2.50;;;;;;;21.03;25.63;101586.09;5049945;28;20029;-54
2023/05/12 09:34:08;;;;;;;7.07;2.80;;;;;;;21.18;25.77;101577.81;5055298;28;20029;-54
2023/05/12 09:36:34;;;;;;;7.38;2.67;;;;;;;20.96;25.81;101576.81;5054666;28;20424;-54
2023/05/12 09:39:03;;;;;;;5.57;2.33;;;;;;;21.11;26.37;101581.97;5053917;28;20037;-53
2023/05/12 09:41:38;;;;;;;5.03;2.95;;;;;;;21.16;26.48;101574.41;5047043;28;20502;-53
2023/05/12 09:44:05;;;;;;;8.23;2.72;;;;;;;21.11;25.88;101566.69;5054334;28;20365;-54
2023/05/12 09:46:31;;;;;;;5.32;2.60;;;;;;;21.06;26.73;101572.41;5047358;28;20491;-56
2023/05/12 09:48:57;;;;;;;7.85;2.95;;;;;;;21.10;26.43;101564.97;5048478;28;20037;-54
2023/05/12 09:51:23;;;;;;;33.08;4.60;;;;;;;21.48;25.97;101576.41;5054746;28;20051;-54
2023/05/12 09:53:49;;;;;;;6.00;2.72;;;;;;;21.57;25.77;101581.09;5050146;28;20037;-55
2023/05/12 09:56:16;;;;;;;3.72;2.80;;;;;;;21.72;25.02;101577.16;5049134;28;20183;-54
2023/05/12 09:58:46;;;;;;;12.00;3.08;;;;;;;21.69;25.07;101577.41;5046891;28;20116;-54
2023/05/12 10:01:16;;;;;;;7.18;2.58;;;;;;;21.72;25.49;101565.56;5050008;28;20029;-54
2023/05/12 10:03:44;;;;;;;;;;;;;;;21.78;25.48;101576.69;5046706;28;20457;-54
2023/05/12 10:06:19;;;;;;;9.73;3.22;;;;;;;21.79;25.38;101575.72;5046276;28;19948;-54
2023/05/12 10:08:50;;;;;;;4.07;2.17;;;;;;;21.62;24.93;101570.81;5049987;28;20048;-54
2023/05/12 10:11:16;;;;;;;6.90;2.20;;;;;;;21.50;25.49;101571.81;5045800;28;20071;-54
2023/05/12 10:13:42;;;;;;;9.75;3.03;;;;;;;21.69;25.94;101574.72;5051367;28;20280;-54
2023/05/12 10:16:08;;;;;;;8.95;2.92;;;;;;;21.90;25.83;101569.44;5048095;28;20040;-54
2023/05/12 10:18:34;;;;;;;5.10;2.55;;;;;;;21.90;26.19;101565.91;5054046;28;20052;-54
2023/05/12 10:21:01;;;;;;;5.18;2.45;;;;;;;21.90;25.84;101563.22;5053993;28;20029;-54
2023/05/12 10:23:27;;;;;;;6.68;2.90;;;;;;;21.99;25.89;101560.63;5047525;28;20065;-54
2023/05/12 10:26:00;;;;;;;5.78;2.67;;;;;;;22.44;25.75;101557.00;5050650;28;20041;-54
2023/05/12 10:28:26;;;;;;;7.13;2.28;;;;;;;22.64;25.65;101551.78;5045196;28;20060;-54
2023/05/12 10:30:52;;;;;;;6.72;2.55;;;;;;;22.33;25.18;101543.56;5043066;28;20030;-54
2023/05/12 10:33:18;;;;;;;6.00;2.70;;;;;;;21.64;26.02;101536.56;5044347;28;20357;-55
2023/05/12 10:35:44;;;;;;;10.88;2.70;;;;;;;22.15;26.22;101557.56;5051018;28;20021;-55
2023/05/12 10:38:11;;;;;;;6.80;3.38;;;;;;;22.22;25.69;101551.66;5035861;28;20033;-55
2023/05/12 10:40:59;;;;;;;16.58;3.15;;;;;;;22.80;25.58;101557.56;5048301;28;20036;-56
2023/05/12 10:43:36;;;;;;;8.90;3.67;;;;;;;22.95;25.07;101559.94;5048319;28;20170;-55
2023/05/12 10:46:06;;;;;;;5.55;2.65;;;;;;;23.73;23.98;101549.59;5044464;28;20113;-55
2023/05/12 10:48:32;;;;;;;9.68;3.53;;;;;;;23.90;23.68;101546.28;5051357;28;20044;-53
2023/05/12 10:51:08;;;;;;;13.05;3.00;;;;;;;24.89;23.38;101548.91;5051654;28;20033;-53
2023/05/12 10:53:33;;;;;;;5.70;2.65;;;;;;;25.61;22.34;101543.06;5053810;28;20025;-54
2023/05/12 10:56:04;;;;;;;6.90;3.22;;;;;;;25.42;22.26;101541.25;5053685;28;20039;-56
2023/05/12 10:58:29;;;;;;;10.70;3.13;;;;;;;25.80;22.00;101552.94;5036581;28;20465;-55
2023/05/12 11:01:04;;;;;;;5.28;2.97;;;;;;;26.63;21.40;101536.56;5046811;28;20035;-54
2023/05/12 11:03:30;;;;;;;8.20;3.05;;;;;;;27.46;20.31;101547.00;5054560;28;20033;-55
2023/05/12 11:06:03;;;;;;;6.03;2.50;;;;;;;27.53;20.00;101549.94;5052305;28;20733;-54
2023/05/12 11:08:33;;;;;;;18.40;3.30;;;;;;;25.51;22.23;101558.50;5051755;28;20060;-55
2023/05/12 11:11:00;;;;;;;6.40;2.60;;;;;;;27.00;20.95;101540.06;5049490;28;20031;-55
2023/05/12 11:13:25;;;;;;;5.80;3.22;;;;;;;26.71;21.00;101544.78;5048613;28;20033;-55
2023/05/12 11:15:51;;;;;;;8.55;3.22;;;;;;;26.43;21.63;101535.84;5033201;28;20112;-55
2023/05/12 11:18:21;;;;;;;5.57;3.33;;;;;;;27.32;20.51;101539.47;5037002;28;20094;-55